sensor_id;sensor_type;location;lat;lon;timestamp;P1;durP1;ratioP1;P2;durP2;ratioP2
19278;SDS011;9773;47.062;15.446;2023-05-01T00:00:49;5.00;;;4.37;;
19278;SDS011;9773;47.062;15.446;2023-05-01T00:03:16;4.47;;;4.07;;
19278;SDS011;9773;47.062;15.446;2023-05-01T00:05:42;4.77;;;4.37;;
19278;SDS011;9773;47.062;15.446;2023-05-01T00:08:08;4.87;;;4.10;;
19278;SDS011;9773;47.062;15.446;2023-05-01T00:10:35;4.90;;;4.40;;
19278;SDS011;9773;47.062;15.446;2023-05-01T00:13:01;4.97;;;4.47;;
19278;SDS011;9773;47.062;15.446;2023-05-01T00:15:27;4.60;;;4.20;;
19278;SDS011;9773;47.062;15.446;2023-05-01T00:17:53;4.83;;;4.43;;
19278;SDS011;9773;47.062;15.446;2023-05-01T00:20:19;4.20;;;3.90;;
19278;SDS011;9773;47.062;15.446;2023-05-01T00:22:45;4.43;;;4.03;;
19278;SDS011;9773;47.062;15.446;2023-05-01T00:25:12;5.13;;;4.50;;
19278;SDS011;9773;47.062;15.446;2023-05-01T00:27:38;5.03;;;4.53;;
19278;SDS011;9773;47.062;15.446;2023-05-01T00:30:04;5.07;;;4.67;;
19278;SDS011;9773;47.062;15.446;2023-05-01T00:32:32;4.30;;;4.00;;
19278;SDS011;9773;47.062;15.446;2023-05-01T00:34:58;4.83;;;4.07;;
19278;SDS011;9773;47.062;15.446;2023-05-01T00:37:24;5.27;;;3.87;;
19278;SDS011;9773;47.062;15.446;2023-05-01T00:39:53;5.00;;;3.67;;
19278;SDS011;9773;47.062;15.446;2023-05-01T00:42:19;3.83;;;3.60;;
19278;SDS011;9773;47.062;15.446;2023-05-01T00:44:44;4.47;;;4.07;;
19278;SDS011;9773;47.062;15.446;2023-05-01T00:47:10;4.23;;;3.83;;
19278;SDS011;9773;47.062;15.446;2023-05-01T00:49:36;4.57;;;3.63;;
19278;SDS011;9773;47.062;15.446;2023-05-01T00:52:02;4.43;;;4.13;;
19278;SDS011;9773;47.062;15.446;2023-05-01T00:54:28;4.60;;;4.20;;
19278;SDS011;9773;47.062;15.446;2023-05-01T00:56:54;4.30;;;4.00;;
19278;SDS011;9773;47.062;15.446;2023-05-01T00:59:20;4.93;;;4.20;;
19278;SDS011;9773;47.062;15.446;2023-05-01T01:01:49;5.03;;;4.33;;
19278;SDS011;9773;47.062;15.446;2023-05-01T01:04:14;4.27;;;3.97;;
19278;SDS011;9773;47.062;15.446;2023-05-01T01:14:57;5.50;;;4.07;;
19278;SDS011;9773;47.062;15.446;2023-05-01T01:17:37;4.73;;;4.30;;
19278;SDS011;9773;47.062;15.446;2023-05-01T01:34:24;4.63;;;4.30;;
19278;SDS011;9773;47.062;15.446;2023-05-01T01:39:56;6.53;;;4.10;;
19278;SDS011;9773;47.062;15.446;2023-05-01T01:42:35;5.27;;;4.30;;
19278;SDS011;9773;47.062;15.446;2023-05-01T01:45:06;4.40;;;4.10;;
19278;SDS011;9773;47.062;15.446;2023-05-01T01:47:37;4.60;;;4.20;;
19278;SDS011;9773;47.062;15.446;2023-05-01T01:50:05;4.57;;;4.03;;
19278;SDS011;9773;47.062;15.446;2023-05-01T01:52:35;7.47;;;4.40;;
19278;SDS011;9773;47.062;15.446;2023-05-01T01:55:05;4.13;;;3.83;;
19278;SDS011;9773;47.062;15.446;2023-05-01T01:57:37;4.07;;;3.67;;
19278;SDS011;9773;47.062;15.446;2023-05-01T02:00:05;4.30;;;4.00;;
19278;SDS011;9773;47.062;15.446;2023-05-01T02:02:35;4.40;;;4.00;;
19278;SDS011;9773;47.062;15.446;2023-05-01T02:05:02;5.40;;;4.00;;
19278;SDS011;9773;47.062;15.446;2023-05-01T02:07:31;4.53;;;4.13;;
19278;SDS011;9773;47.062;15.446;2023-05-01T02:09:58;6.73;;;4.50;;
19278;SDS011;9773;47.062;15.446;2023-05-01T02:12:26;5.90;;;3.97;;
19278;SDS011;9773;47.062;15.446;2023-05-01T02:14:53;4.73;;;4.33;;
19278;SDS011;9773;47.062;15.446;2023-05-01T02:17:21;4.13;;;3.83;;
19278;SDS011;9773;47.062;15.446;2023-05-01T02:19:48;6.70;;;4.87;;
19278;SDS011;9773;47.062;15.446;2023-05-01T02:22:17;5.13;;;4.63;;
19278;SDS011;9773;47.062;15.446;2023-05-01T02:24:44;4.53;;;4.13;;
19278;SDS011;9773;47.062;15.446;2023-05-01T02:27:15;5.03;;;4.63;;
19278;SDS011;9773;47.062;15.446;2023-05-01T02:29:48;4.77;;;4.37;;
19278;SDS011;9773;47.062;15.446;2023-05-01T02:32:16;5.83;;;4.43;;
19278;SDS011;9773;47.062;15.446;2023-05-01T02:34:42;4.33;;;3.67;;
19278;SDS011;9773;47.062;15.446;2023-05-01T02:37:09;5.27;;;4.83;;
19278;SDS011;9773;47.062;15.446;2023-05-01T02:39:36;5.20;;;4.70;;
19278;SDS011;9773;47.062;15.446;2023-05-01T02:42:03;4.73;;;4.33;;
19278;SDS011;9773;47.062;15.446;2023-05-01T02:44:37;4.70;;;4.20;;
19278;SDS011;9773;47.062;15.446;2023-05-01T02:47:07;5.90;;;4.27;;
19278;SDS011;9773;47.062;15.446;2023-05-01T02:49:35;5.13;;;4.63;;
19278;SDS011;9773;47.062;15.446;2023-05-01T02:52:02;4.90;;;4.20;;
19278;SDS011;9773;47.062;15.446;2023-05-01T02:54:29;4.53;;;3.73;;
19278;SDS011;9773;47.062;15.446;2023-05-01T02:56:55;4.67;;;4.30;;
19278;SDS011;9773;47.062;15.446;2023-05-01T02:59:23;4.50;;;4.10;;
19278;SDS011;9773;47.062;15.446;2023-05-01T03:01:49;4.87;;;4.47;;
19278;SDS011;9773;47.062;15.446;2023-05-01T03:04:15;4.10;;;3.80;;
19278;SDS011;9773;47.062;15.446;2023-05-01T03:06:41;4.87;;;4.47;;
19278;SDS011;9773;47.062;15.446;2023-05-01T03:09:08;4.30;;;4.00;;
19278;SDS011;9773;47.062;15.446;2023-05-01T03:11:34;5.60;;;4.20;;
19278;SDS011;9773;47.062;15.446;2023-05-01T03:14:00;6.00;;;4.43;;
19278;SDS011;9773;47.062;15.446;2023-05-01T03:16:26;5.80;;;4.70;;
19278;SDS011;9773;47.062;15.446;2023-05-01T03:18:51;4.80;;;4.30;;
19278;SDS011;9773;47.062;15.446;2023-05-01T03:21:17;4.47;;;4.17;;
19278;SDS011;9773;47.062;15.446;2023-05-01T03:23:43;4.93;;;4.13;;
19278;SDS011;9773;47.062;15.446;2023-05-01T03:26:09;4.60;;;4.10;;
19278;SDS011;9773;47.062;15.446;2023-05-01T03:28:34;5.10;;;4.23;;
19278;SDS011;9773;47.062;15.446;2023-05-01T03:31:00;6.27;;;5.37;;
19278;SDS011;9773;47.062;15.446;2023-05-01T03:33:26;5.60;;;5.10;;
19278;SDS011;9773;47.062;15.446;2023-05-01T03:36:00;7.87;;;4.97;;
19278;SDS011;9773;47.062;15.446;2023-05-01T03:38:28;4.70;;;4.40;;
19278;SDS011;9773;47.062;15.446;2023-05-01T03:40:55;5.03;;;4.57;;
19278;SDS011;9773;47.062;15.446;2023-05-01T03:43:21;5.97;;;4.83;;
19278;SDS011;9773;47.062;15.446;2023-05-01T03:45:48;6.73;;;4.07;;
19278;SDS011;9773;47.062;15.446;2023-05-01T03:48:14;4.73;;;4.43;;
19278;SDS011;9773;47.062;15.446;2023-05-01T03:50:41;4.60;;;4.17;;
19278;SDS011;9773;47.062;15.446;2023-05-01T03:53:07;4.33;;;4.03;;
19278;SDS011;9773;47.062;15.446;2023-05-01T03:55:33;4.80;;;4.30;;
19278;SDS011;9773;47.062;15.446;2023-05-01T03:57:58;4.63;;;4.10;;
19278;SDS011;9773;47.062;15.446;2023-05-01T04:00:24;4.60;;;4.20;;
19278;SDS011;9773;47.062;15.446;2023-05-01T04:02:51;4.23;;;3.80;;
19278;SDS011;9773;47.062;15.446;2023-05-01T04:05:16;5.37;;;4.47;;
19278;SDS011;9773;47.062;15.446;2023-05-01T04:07:43;6.17;;;4.53;;
19278;SDS011;9773;47.062;15.446;2023-05-01T04:10:09;3.77;;;3.53;;
19278;SDS011;9773;47.062;15.446;2023-05-01T04:12:35;4.73;;;4.30;;
19278;SDS011;9773;47.062;15.446;2023-05-01T04:15:01;4.63;;;4.23;;
19278;SDS011;9773;47.062;15.446;2023-05-01T04:17:28;4.53;;;4.13;;
19278;SDS011;9773;47.062;15.446;2023-05-01T04:19:55;4.53;;;4.13;;
19278;SDS011;9773;47.062;15.446;2023-05-01T04:22:21;4.40;;;4.10;;
19278;SDS011;9773;47.062;15.446;2023-05-01T04:24:47;3.67;;;3.47;;
19278;SDS011;9773;47.062;15.446;2023-05-01T04:27:13;4.87;;;4.37;;
19278;SDS011;9773;47.062;15.446;2023-05-01T04:29:39;5.73;;;4.70;;
19278;SDS011;9773;47.062;15.446;2023-05-01T04:32:06;4.77;;;4.17;;
19278;SDS011;9773;47.062;15.446;2023-05-01T04:34:32;4.57;;;4.27;;
19278;SDS011;9773;47.062;15.446;2023-05-01T04:36:59;6.17;;;3.90;;
19278;SDS011;9773;47.062;15.446;2023-05-01T04:39:26;4.70;;;4.30;;
19278;SDS011;9773;47.062;15.446;2023-05-01T04:41:52;3.90;;;3.60;;
19278;SDS011;9773;47.062;15.446;2023-05-01T04:44:18;4.33;;;4.03;;
19278;SDS011;9773;47.062;15.446;2023-05-01T04:46:44;4.43;;;4.03;;
19278;SDS011;9773;47.062;15.446;2023-05-01T04:49:10;4.90;;;4.50;;
19278;SDS011;9773;47.062;15.446;2023-05-01T04:51:36;5.13;;;3.83;;
19278;SDS011;9773;47.062;15.446;2023-05-01T04:54:02;6.97;;;4.00;;
19278;SDS011;9773;47.062;15.446;2023-05-01T04:56:29;4.97;;;4.30;;
19278;SDS011;9773;47.062;15.446;2023-05-01T04:58:54;4.50;;;4.10;;
19278;SDS011;9773;47.062;15.446;2023-05-01T05:01:20;4.53;;;4.13;;
19278;SDS011;9773;47.062;15.446;2023-05-01T05:03:46;4.47;;;4.07;;
19278;SDS011;9773;47.062;15.446;2023-05-01T05:06:11;4.50;;;4.10;;
19278;SDS011;9773;47.062;15.446;2023-05-01T05:08:37;4.03;;;3.80;;
19278;SDS011;9773;47.062;15.446;2023-05-01T05:11:03;5.47;;;4.43;;
19278;SDS011;9773;47.062;15.446;2023-05-01T05:13:29;4.60;;;4.20;;
19278;SDS011;9773;47.062;15.446;2023-05-01T05:15:55;4.70;;;4.33;;
19278;SDS011;9773;47.062;15.446;2023-05-01T05:18:24;3.97;;;3.70;;
19278;SDS011;9773;47.062;15.446;2023-05-01T05:20:49;4.27;;;3.83;;
19278;SDS011;9773;47.062;15.446;2023-05-01T05:23:15;5.70;;;4.17;;
19278;SDS011;9773;47.062;15.446;2023-05-01T05:25:41;4.13;;;3.93;;
19278;SDS011;9773;47.062;15.446;2023-05-01T05:28:07;4.83;;;4.17;;
19278;SDS011;9773;47.062;15.446;2023-05-01T05:30:33;5.60;;;4.93;;
19278;SDS011;9773;47.062;15.446;2023-05-01T05:32:59;4.20;;;3.90;;
19278;SDS011;9773;47.062;15.446;2023-05-01T05:35:25;4.20;;;3.90;;
19278;SDS011;9773;47.062;15.446;2023-05-01T05:37:51;4.30;;;4.00;;
19278;SDS011;9773;47.062;15.446;2023-05-01T05:40:17;4.47;;;4.07;;
19278;SDS011;9773;47.062;15.446;2023-05-01T05:42:43;4.43;;;4.03;;
19278;SDS011;9773;47.062;15.446;2023-05-01T05:45:09;4.33;;;4.03;;
19278;SDS011;9773;47.062;15.446;2023-05-01T05:47:35;4.20;;;3.90;;
19278;SDS011;9773;47.062;15.446;2023-05-01T05:50:00;4.17;;;3.77;;
19278;SDS011;9773;47.062;15.446;2023-05-01T05:52:26;4.90;;;4.40;;
19278;SDS011;9773;47.062;15.446;2023-05-01T05:54:52;4.70;;;4.30;;
19278;SDS011;9773;47.062;15.446;2023-05-01T05:57:21;7.07;;;4.60;;
19278;SDS011;9773;47.062;15.446;2023-05-01T05:59:47;4.70;;;4.30;;
19278;SDS011;9773;47.062;15.446;2023-05-01T06:02:12;4.40;;;4.00;;
19278;SDS011;9773;47.062;15.446;2023-05-01T06:04:38;4.50;;;4.20;;
19278;SDS011;9773;47.062;15.446;2023-05-01T06:07:04;4.40;;;4.00;;
19278;SDS011;9773;47.062;15.446;2023-05-01T06:09:30;4.13;;;3.83;;
19278;SDS011;9773;47.062;15.446;2023-05-01T06:11:56;4.67;;;4.30;;
19278;SDS011;9773;47.062;15.446;2023-05-01T06:14:22;4.80;;;4.03;;
19278;SDS011;9773;47.062;15.446;2023-05-01T06:16:48;4.30;;;3.90;;
19278;SDS011;9773;47.062;15.446;2023-05-01T06:19:14;4.70;;;4.30;;
19278;SDS011;9773;47.062;15.446;2023-05-01T06:21:39;4.60;;;4.20;;
19278;SDS011;9773;47.062;15.446;2023-05-01T06:24:05;4.23;;;3.87;;
19278;SDS011;9773;47.062;15.446;2023-05-01T06:26:31;4.67;;;4.27;;
19278;SDS011;9773;47.062;15.446;2023-05-01T06:28:57;4.63;;;3.97;;
19278;SDS011;9773;47.062;15.446;2023-05-01T06:31:22;3.53;;;3.23;;
19278;SDS011;9773;47.062;15.446;2023-05-01T06:33:48;10.57;;;7.40;;
19278;SDS011;9773;47.062;15.446;2023-05-01T06:36:14;9.30;;;6.10;;
19278;SDS011;9773;47.062;15.446;2023-05-01T06:38:39;6.83;;;3.63;;
19278;SDS011;9773;47.062;15.446;2023-05-01T06:41:08;3.73;;;3.43;;
19278;SDS011;9773;47.062;15.446;2023-05-01T06:43:34;3.77;;;3.57;;
19278;SDS011;9773;47.062;15.446;2023-05-01T06:46:00;3.87;;;3.57;;
19278;SDS011;9773;47.062;15.446;2023-05-01T06:48:25;5.43;;;3.67;;
19278;SDS011;9773;47.062;15.446;2023-05-01T06:50:51;3.67;;;3.47;;
19278;SDS011;9773;47.062;15.446;2023-05-01T06:53:17;4.00;;;3.70;;
19278;SDS011;9773;47.062;15.446;2023-05-01T06:55:43;3.93;;;3.63;;
19278;SDS011;9773;47.062;15.446;2023-05-01T06:58:08;3.83;;;3.53;;
19278;SDS011;9773;47.062;15.446;2023-05-01T07:00:34;3.90;;;3.60;;
19278;SDS011;9773;47.062;15.446;2023-05-01T07:03:00;3.93;;;3.73;;
19278;SDS011;9773;47.062;15.446;2023-05-01T07:05:27;3.97;;;3.70;;
19278;SDS011;9773;47.062;15.446;2023-05-01T07:07:53;4.03;;;3.63;;
19278;SDS011;9773;47.062;15.446;2023-05-01T07:10:19;4.20;;;3.90;;
19278;SDS011;9773;47.062;15.446;2023-05-01T07:12:44;4.10;;;3.73;;
19278;SDS011;9773;47.062;15.446;2023-05-01T07:15:11;4.03;;;3.73;;
19278;SDS011;9773;47.062;15.446;2023-05-01T07:17:39;6.50;;;5.17;;
19278;SDS011;9773;47.062;15.446;2023-05-01T07:20:05;5.93;;;5.37;;
19278;SDS011;9773;47.062;15.446;2023-05-01T07:22:31;3.97;;;3.67;;
19278;SDS011;9773;47.062;15.446;2023-05-01T07:24:57;4.47;;;4.17;;
19278;SDS011;9773;47.062;15.446;2023-05-01T07:27:25;3.93;;;3.60;;
19278;SDS011;9773;47.062;15.446;2023-05-01T07:29:50;3.87;;;3.67;;
19278;SDS011;9773;47.062;15.446;2023-05-01T07:32:17;4.10;;;3.80;;
19278;SDS011;9773;47.062;15.446;2023-05-01T07:34:43;4.97;;;4.47;;
19278;SDS011;9773;47.062;15.446;2023-05-01T07:37:09;4.80;;;4.40;;
19278;SDS011;9773;47.062;15.446;2023-05-01T07:39:34;4.27;;;3.87;;
19278;SDS011;9773;47.062;15.446;2023-05-01T07:42:03;5.57;;;5.00;;
19278;SDS011;9773;47.062;15.446;2023-05-01T07:44:30;4.23;;;3.93;;
19278;SDS011;9773;47.062;15.446;2023-05-01T07:47:01;3.90;;;3.60;;
19278;SDS011;9773;47.062;15.446;2023-05-01T07:49:28;3.80;;;3.50;;
19278;SDS011;9773;47.062;15.446;2023-05-01T07:51:54;5.10;;;4.60;;
19278;SDS011;9773;47.062;15.446;2023-05-01T07:54:20;5.40;;;4.90;;
19278;SDS011;9773;47.062;15.446;2023-05-01T07:56:46;4.50;;;4.20;;
19278;SDS011;9773;47.062;15.446;2023-05-01T07:59:12;3.80;;;3.60;;
19278;SDS011;9773;47.062;15.446;2023-05-01T08:01:39;5.13;;;4.13;;
19278;SDS011;9773;47.062;15.446;2023-05-01T08:04:05;4.40;;;4.00;;
19278;SDS011;9773;47.062;15.446;2023-05-01T08:06:31;4.33;;;3.97;;
19278;SDS011;9773;47.062;15.446;2023-05-01T08:08:57;4.10;;;3.80;;
19278;SDS011;9773;47.062;15.446;2023-05-01T08:11:23;4.47;;;4.07;;
19278;SDS011;9773;47.062;15.446;2023-05-01T08:13:49;3.90;;;3.70;;
19278;SDS011;9773;47.062;15.446;2023-05-01T08:16:15;4.07;;;3.77;;
19278;SDS011;9773;47.062;15.446;2023-05-01T08:18:41;4.10;;;3.80;;
19278;SDS011;9773;47.062;15.446;2023-05-01T08:21:07;4.50;;;4.10;;
19278;SDS011;9773;47.062;15.446;2023-05-01T08:23:32;4.40;;;4.00;;
19278;SDS011;9773;47.062;15.446;2023-05-01T08:25:58;3.77;;;3.57;;
19278;SDS011;9773;47.062;15.446;2023-05-01T08:28:24;4.40;;;4.03;;
19278;SDS011;9773;47.062;15.446;2023-05-01T08:30:49;4.20;;;3.90;;
19278;SDS011;9773;47.062;15.446;2023-05-01T08:33:15;4.20;;;3.90;;
19278;SDS011;9773;47.062;15.446;2023-05-01T08:35:41;4.50;;;3.90;;
19278;SDS011;9773;47.062;15.446;2023-05-01T08:38:07;4.10;;;3.80;;
19278;SDS011;9773;47.062;15.446;2023-05-01T08:40:35;3.80;;;3.50;;
19278;SDS011;9773;47.062;15.446;2023-05-01T08:43:02;5.27;;;3.63;;
19278;SDS011;9773;47.062;15.446;2023-05-01T08:45:31;4.03;;;3.73;;
19278;SDS011;9773;47.062;15.446;2023-05-01T08:48:04;5.70;;;4.03;;
19278;SDS011;9773;47.062;15.446;2023-05-01T08:50:32;4.40;;;4.03;;
19278;SDS011;9773;47.062;15.446;2023-05-01T08:53:00;4.67;;;4.27;;
19278;SDS011;9773;47.062;15.446;2023-05-01T08:55:27;4.10;;;3.80;;
19278;SDS011;9773;47.062;15.446;2023-05-01T08:57:56;3.70;;;3.50;;
19278;SDS011;9773;47.062;15.446;2023-05-01T09:00:23;4.07;;;3.80;;
19278;SDS011;9773;47.062;15.446;2023-05-01T09:02:51;3.87;;;3.57;;
19278;SDS011;9773;47.062;15.446;2023-05-01T09:05:17;3.87;;;3.60;;
19278;SDS011;9773;47.062;15.446;2023-05-01T09:07:43;4.00;;;3.70;;
19278;SDS011;9773;47.062;15.446;2023-05-01T09:10:14;4.03;;;3.73;;
19278;SDS011;9773;47.062;15.446;2023-05-01T09:12:41;4.60;;;4.00;;
19278;SDS011;9773;47.062;15.446;2023-05-01T09:15:11;4.50;;;3.90;;
19278;SDS011;9773;47.062;15.446;2023-05-01T09:17:37;3.97;;;3.77;;
19278;SDS011;9773;47.062;15.446;2023-05-01T09:20:05;5.20;;;4.80;;
19278;SDS011;9773;47.062;15.446;2023-05-01T09:22:32;4.00;;;3.70;;
19278;SDS011;9773;47.062;15.446;2023-05-01T09:24:59;4.47;;;3.80;;
19278;SDS011;9773;47.062;15.446;2023-05-01T09:27:25;4.07;;;3.77;;
19278;SDS011;9773;47.062;15.446;2023-05-01T09:29:52;4.20;;;3.90;;
19278;SDS011;9773;47.062;15.446;2023-05-01T09:32:18;3.80;;;3.50;;
19278;SDS011;9773;47.062;15.446;2023-05-01T09:34:48;4.00;;;3.70;;
19278;SDS011;9773;47.062;15.446;2023-05-01T09:37:25;3.50;;;3.30;;
19278;SDS011;9773;47.062;15.446;2023-05-01T09:45:16;4.23;;;3.93;;
19278;SDS011;9773;47.062;15.446;2023-05-01T09:47:43;4.73;;;3.60;;
19278;SDS011;9773;47.062;15.446;2023-05-01T09:50:11;4.10;;;3.70;;
19278;SDS011;9773;47.062;15.446;2023-05-01T09:52:57;4.30;;;4.00;;
19278;SDS011;9773;47.062;15.446;2023-05-01T09:55:25;4.30;;;3.87;;
19278;SDS011;9773;47.062;15.446;2023-05-01T09:57:50;3.73;;;3.53;;
19278;SDS011;9773;47.062;15.446;2023-05-01T10:00:17;3.60;;;3.40;;
19278;SDS011;9773;47.062;15.446;2023-05-01T10:02:45;3.67;;;3.40;;
19278;SDS011;9773;47.062;15.446;2023-05-01T10:05:12;3.70;;;3.40;;
19278;SDS011;9773;47.062;15.446;2023-05-01T10:07:39;4.07;;;3.77;;
19278;SDS011;9773;47.062;15.446;2023-05-01T10:10:26;4.10;;;3.80;;
19278;SDS011;9773;47.062;15.446;2023-05-01T10:12:52;3.93;;;3.63;;
19278;SDS011;9773;47.062;15.446;2023-05-01T10:15:18;5.00;;;3.70;;
19278;SDS011;9773;47.062;15.446;2023-05-01T10:17:44;4.20;;;3.80;;
19278;SDS011;9773;47.062;15.446;2023-05-01T10:20:13;4.13;;;3.80;;
19278;SDS011;9773;47.062;15.446;2023-05-01T10:22:39;4.27;;;4.07;;
19278;SDS011;9773;47.062;15.446;2023-05-01T10:25:09;3.70;;;3.40;;
19278;SDS011;9773;47.062;15.446;2023-05-01T10:27:37;5.83;;;3.50;;
19278;SDS011;9773;47.062;15.446;2023-05-01T10:30:06;3.60;;;3.40;;
19278;SDS011;9773;47.062;15.446;2023-05-01T10:32:33;3.90;;;3.60;;
19278;SDS011;9773;47.062;15.446;2023-05-01T10:35:08;4.20;;;3.90;;
19278;SDS011;9773;47.062;15.446;2023-05-01T10:37:45;3.70;;;3.40;;
19278;SDS011;9773;47.062;15.446;2023-05-01T10:45:53;6.27;;;2.97;;
19278;SDS011;9773;47.062;15.446;2023-05-01T10:51:09;3.60;;;3.30;;
19278;SDS011;9773;47.062;15.446;2023-05-01T10:53:38;3.43;;;3.20;;
19278;SDS011;9773;47.062;15.446;2023-05-01T10:56:05;3.10;;;2.90;;
19278;SDS011;9773;47.062;15.446;2023-05-01T11:01:38;3.70;;;3.37;;
19278;SDS011;9773;47.062;15.446;2023-05-01T11:09:51;3.73;;;3.43;;
19278;SDS011;9773;47.062;15.446;2023-05-01T11:15:10;3.27;;;3.07;;
19278;SDS011;9773;47.062;15.446;2023-05-01T11:22:33;3.40;;;3.10;;
19278;SDS011;9773;47.062;15.446;2023-05-01T11:24:59;3.00;;;2.80;;
19278;SDS011;9773;47.062;15.446;2023-05-01T11:27:45;3.20;;;3.00;;
19278;SDS011;9773;47.062;15.446;2023-05-01T11:30:14;2.97;;;2.87;;
19278;SDS011;9773;47.062;15.446;2023-05-01T11:32:44;3.30;;;3.10;;
19278;SDS011;9773;47.062;15.446;2023-05-01T11:35:21;3.03;;;2.83;;
19278;SDS011;9773;47.062;15.446;2023-05-01T11:37:48;3.10;;;2.80;;
19278;SDS011;9773;47.062;15.446;2023-05-01T11:42:48;16.17;;;10.43;;
19278;SDS011;9773;47.062;15.446;2023-05-01T11:45:15;3.97;;;3.67;;
19278;SDS011;9773;47.062;15.446;2023-05-01T11:47:43;3.50;;;3.30;;
19278;SDS011;9773;47.062;15.446;2023-05-01T11:50:08;2.90;;;2.70;;
19278;SDS011;9773;47.062;15.446;2023-05-01T11:52:45;3.37;;;3.17;;
19278;SDS011;9773;47.062;15.446;2023-05-01T11:55:17;5.10;;;4.63;;
19278;SDS011;9773;47.062;15.446;2023-05-01T11:57:47;3.33;;;3.03;;
19278;SDS011;9773;47.062;15.446;2023-05-01T12:00:24;3.20;;;2.67;;
19278;SDS011;9773;47.062;15.446;2023-05-01T12:03:00;2.97;;;2.80;;
19278;SDS011;9773;47.062;15.446;2023-05-01T12:05:30;3.47;;;3.17;;
19278;SDS011;9773;47.062;15.446;2023-05-01T12:10:42;2.80;;;2.60;;
19278;SDS011;9773;47.062;15.446;2023-05-01T12:13:09;2.60;;;2.50;;
19278;SDS011;9773;47.062;15.446;2023-05-01T12:15:36;3.00;;;2.60;;
19278;SDS011;9773;47.062;15.446;2023-05-01T12:18:05;3.00;;;2.80;;
19278;SDS011;9773;47.062;15.446;2023-05-01T12:23:11;2.60;;;2.50;;
19278;SDS011;9773;47.062;15.446;2023-05-01T12:25:40;2.50;;;2.40;;
19278;SDS011;9773;47.062;15.446;2023-05-01T12:28:08;2.90;;;2.70;;
19278;SDS011;9773;47.062;15.446;2023-05-01T12:30:47;3.10;;;2.87;;
19278;SDS011;9773;47.062;15.446;2023-05-01T12:33:17;2.60;;;2.50;;
19278;SDS011;9773;47.062;15.446;2023-05-01T12:35:44;2.67;;;2.47;;
19278;SDS011;9773;47.062;15.446;2023-05-01T12:38:14;2.60;;;2.40;;
19278;SDS011;9773;47.062;15.446;2023-05-01T12:43:21;2.50;;;2.40;;
19278;SDS011;9773;47.062;15.446;2023-05-01T12:45:54;2.30;;;2.20;;
19278;SDS011;9773;47.062;15.446;2023-05-01T12:48:20;2.40;;;2.30;;
19278;SDS011;9773;47.062;15.446;2023-05-01T12:50:47;2.20;;;2.10;;
19278;SDS011;9773;47.062;15.446;2023-05-01T12:53:22;2.33;;;2.23;;
19278;SDS011;9773;47.062;15.446;2023-05-01T12:55:53;2.50;;;2.40;;
19278;SDS011;9773;47.062;15.446;2023-05-01T12:58:20;2.27;;;2.17;;
19278;SDS011;9773;47.062;15.446;2023-05-01T13:00:48;2.90;;;2.70;;
19278;SDS011;9773;47.062;15.446;2023-05-01T13:03:24;2.40;;;2.23;;
19278;SDS011;9773;47.062;15.446;2023-05-01T13:08:24;2.57;;;2.47;;
19278;SDS011;9773;47.062;15.446;2023-05-01T13:10:53;2.60;;;2.50;;
19278;SDS011;9773;47.062;15.446;2023-05-01T13:13:22;2.37;;;2.27;;
19278;SDS011;9773;47.062;15.446;2023-05-01T13:18:51;2.97;;;2.67;;
19278;SDS011;9773;47.062;15.446;2023-05-01T13:21:20;3.00;;;2.80;;
19278;SDS011;9773;47.062;15.446;2023-05-01T13:23:56;2.67;;;2.57;;
19278;SDS011;9773;47.062;15.446;2023-05-01T13:26:26;3.13;;;2.90;;
19278;SDS011;9773;47.062;15.446;2023-05-01T13:28:56;2.90;;;2.70;;
19278;SDS011;9773;47.062;15.446;2023-05-01T13:31:24;3.27;;;2.60;;
19278;SDS011;9773;47.062;15.446;2023-05-01T13:33:50;2.53;;;2.43;;
19278;SDS011;9773;47.062;15.446;2023-05-01T13:36:17;2.83;;;2.63;;
19278;SDS011;9773;47.062;15.446;2023-05-01T13:38:47;3.00;;;2.70;;
19278;SDS011;9773;47.062;15.446;2023-05-01T13:41:21;2.63;;;2.53;;
19278;SDS011;9773;47.062;15.446;2023-05-01T13:43:48;2.93;;;2.73;;
19278;SDS011;9773;47.062;15.446;2023-05-01T13:46:16;2.63;;;2.53;;
19278;SDS011;9773;47.062;15.446;2023-05-01T13:48:43;3.10;;;2.73;;
19278;SDS011;9773;47.062;15.446;2023-05-01T13:51:11;2.90;;;2.70;;
19278;SDS011;9773;47.062;15.446;2023-05-01T13:53:38;3.20;;;2.97;;
19278;SDS011;9773;47.062;15.446;2023-05-01T13:56:05;2.60;;;2.50;;
19278;SDS011;9773;47.062;15.446;2023-05-01T13:58:33;2.23;;;2.13;;
19278;SDS011;9773;47.062;15.446;2023-05-01T14:00:59;2.60;;;2.40;;
19278;SDS011;9773;47.062;15.446;2023-05-01T14:03:25;2.97;;;2.77;;
19278;SDS011;9773;47.062;15.446;2023-05-01T14:05:51;2.50;;;2.40;;
19278;SDS011;9773;47.062;15.446;2023-05-01T14:08:19;2.30;;;2.20;;
19278;SDS011;9773;47.062;15.446;2023-05-01T14:10:46;2.40;;;2.20;;
19278;SDS011;9773;47.062;15.446;2023-05-01T14:13:12;2.37;;;2.27;;
19278;SDS011;9773;47.062;15.446;2023-05-01T14:15:43;2.83;;;2.53;;
19278;SDS011;9773;47.062;15.446;2023-05-01T14:18:10;2.80;;;2.70;;
19278;SDS011;9773;47.062;15.446;2023-05-01T14:20:40;3.20;;;3.00;;
19278;SDS011;9773;47.062;15.446;2023-05-01T14:23:16;3.50;;;3.30;;
19278;SDS011;9773;47.062;15.446;2023-05-01T14:25:44;3.20;;;2.87;;
19278;SDS011;9773;47.062;15.446;2023-05-01T14:28:12;2.93;;;2.63;;
19278;SDS011;9773;47.062;15.446;2023-05-01T14:30:40;2.47;;;2.37;;
19278;SDS011;9773;47.062;15.446;2023-05-01T14:33:09;2.80;;;2.60;;
19278;SDS011;9773;47.062;15.446;2023-05-01T14:35:36;2.67;;;2.57;;
19278;SDS011;9773;47.062;15.446;2023-05-01T14:38:16;3.00;;;2.80;;
19278;SDS011;9773;47.062;15.446;2023-05-01T14:40:43;2.57;;;2.47;;
19278;SDS011;9773;47.062;15.446;2023-05-01T14:43:09;2.87;;;2.60;;
19278;SDS011;9773;47.062;15.446;2023-05-01T14:45:41;3.17;;;2.97;;
19278;SDS011;9773;47.062;15.446;2023-05-01T14:48:09;2.80;;;2.70;;
19278;SDS011;9773;47.062;15.446;2023-05-01T14:50:57;3.60;;;3.30;;
19278;SDS011;9773;47.062;15.446;2023-05-01T14:53:23;3.53;;;3.23;;
19278;SDS011;9773;47.062;15.446;2023-05-01T14:55:51;3.10;;;2.90;;
19278;SDS011;9773;47.062;15.446;2023-05-01T14:58:18;3.43;;;3.23;;
19278;SDS011;9773;47.062;15.446;2023-05-01T15:00:43;2.90;;;2.80;;
19278;SDS011;9773;47.062;15.446;2023-05-01T15:03:10;2.93;;;2.80;;
19278;SDS011;9773;47.062;15.446;2023-05-01T15:05:35;2.90;;;2.80;;
19278;SDS011;9773;47.062;15.446;2023-05-01T15:08:02;2.70;;;2.53;;
19278;SDS011;9773;47.062;15.446;2023-05-01T15:10:29;3.07;;;2.87;;
19278;SDS011;9773;47.062;15.446;2023-05-01T15:12:56;2.70;;;2.57;;
19278;SDS011;9773;47.062;15.446;2023-05-01T15:15:22;2.53;;;2.33;;
19278;SDS011;9773;47.062;15.446;2023-05-01T15:17:48;2.80;;;2.60;;
19278;SDS011;9773;47.062;15.446;2023-05-01T15:20:13;3.30;;;2.70;;
19278;SDS011;9773;47.062;15.446;2023-05-01T15:22:39;2.60;;;2.50;;
19278;SDS011;9773;47.062;15.446;2023-05-01T15:25:06;4.50;;;4.10;;
19278;SDS011;9773;47.062;15.446;2023-05-01T15:27:33;4.23;;;3.93;;
19278;SDS011;9773;47.062;15.446;2023-05-01T15:29:58;3.07;;;2.97;;
19278;SDS011;9773;47.062;15.446;2023-05-01T15:32:24;4.20;;;3.90;;
19278;SDS011;9773;47.062;15.446;2023-05-01T15:34:50;3.23;;;3.03;;
19278;SDS011;9773;47.062;15.446;2023-05-01T15:37:20;2.93;;;2.73;;
19278;SDS011;9773;47.062;15.446;2023-05-01T15:39:49;2.70;;;2.60;;
19278;SDS011;9773;47.062;15.446;2023-05-01T15:42:18;3.00;;;2.80;;
19278;SDS011;9773;47.062;15.446;2023-05-01T15:44:44;2.90;;;2.80;;
19278;SDS011;9773;47.062;15.446;2023-05-01T15:47:11;3.83;;;3.40;;
19278;SDS011;9773;47.062;15.446;2023-05-01T15:49:37;3.20;;;3.00;;
19278;SDS011;9773;47.062;15.446;2023-05-01T15:52:03;3.07;;;2.87;;
19278;SDS011;9773;47.062;15.446;2023-05-01T15:54:29;3.10;;;3.00;;
19278;SDS011;9773;47.062;15.446;2023-05-01T15:56:55;3.23;;;3.03;;
19278;SDS011;9773;47.062;15.446;2023-05-01T15:59:22;3.70;;;2.67;;
19278;SDS011;9773;47.062;15.446;2023-05-01T16:01:48;2.87;;;2.67;;